Time;durP1;ratioP1;P1;durP2;ratioP2;P2;SDS_P1;SDS_P2;PMS_P1;PMS_P2;Temp;Humidity;BMP_temperature;BMP_pressure;BME280_temperature;BME280_humidity;BME280_pressure;Samples;Min_cycle;Max_cycle;Signal;HPM_P1;HPM_P2
2023/01/28 00:01:44;;;;;;;28.30;16.70;;;;;;;5.33;60.01;100866.47;5114298;28;20513;-78
2023/01/28 00:04:10;;;;;;;28.57;17.80;;;;;;;5.33;59.69;100865.63;5111163;28;20449;-78
2023/01/28 00:06:36;;;;;;;28.30;17.40;;;;;;;5.26;59.98;100860.06;5111355;28;20374;-78
2023/01/28 00:09:02;;;;;;;36.23;22.93;;;;;;;5.32;59.98;100874.47;5109979;28;20376;-78
2023/01/28 00:11:28;;;;;;;32.33;20.08;;;;;;;5.32;59.74;100875.31;5110917;28;20390;-77
2023/01/28 00:13:54;;;;;;;30.77;19.60;;;;;;;5.33;59.69;100876.13;5111031;28;20368;-78
2023/01/28 00:16:21;;;;;;;30.05;18.88;;;;;;;5.31;59.91;100873.66;5109708;28;20407;-77
2023/01/28 00:18:47;;;;;;;32.73;19.67;;;;;;;5.31;59.61;100881.53;5113611;28;20393;-77
2023/01/28 00:21:14;;;;;;;19.02;12.68;;;;;;;5.14;59.66;100880.34;5112664;28;20375;-78
2023/01/28 00:23:42;;;;;;;32.78;20.33;;;;;;;4.97;59.79;100887.03;5115297;28;20463;-78
2023/01/28 00:26:13;;;;;;;34.08;21.52;;;;;;;4.92;60.24;100891.84;5114694;28;20432;-78
2023/01/28 00:28:40;;;;;;;26.50;16.37;;;;;;;4.77;60.63;100891.34;5113822;28;20384;-78
2023/01/28 00:31:15;;;;;;;33.22;19.92;;;;;;;4.67;60.79;100895.69;5112329;28;20399;-78
2023/01/28 00:33:40;;;;;;;20.58;13.30;;;;;;;4.66;60.71;100890.53;5115479;28;20379;-78
2023/01/28 00:36:06;;;;;;;24.08;15.30;;;;;;;4.81;61.06;100898.94;5115399;28;20396;-78
2023/01/28 00:38:33;;;;;;;39.92;26.20;;;;;;;4.75;60.59;100890.63;5115320;28;20375;-78
2023/01/28 00:41:12;;;;;;;51.80;32.33;;;;;;;4.74;60.65;100896.00;5115781;28;20399;-78
2023/01/28 00:43:38;;;;;;;34.35;20.80;;;;;;;4.74;60.91;100896.84;5114995;28;20770;-78
2023/01/28 00:46:06;;;;;;;48.05;27.95;;;;;;;4.71;61.00;100899.72;5114830;28;20407;-78
2023/01/28 00:48:32;;;;;;;21.63;12.82;;;;;;;4.59;60.46;100893.69;5115714;28;20438;-77
2023/01/28 00:50:57;;;;;;;22.77;14.15;;;;;;;4.62;61.03;100897.03;5115706;28;20384;-78
2023/01/28 00:53:23;;;;;;;22.52;15.75;;;;;;;4.63;61.09;100899.53;5115327;28;20383;-78
2023/01/28 00:55:49;;;;;;;36.33;22.92;;;;;;;4.72;60.59;100911.06;5115542;28;20864;-78
2023/01/28 00:58:14;;;;;;;45.22;25.58;;;;;;;4.76;60.65;100909.84;5114967;28;20415;-77
2023/01/28 01:00:39;;;;;;;35.43;21.90;;;;;;;4.78;60.17;100911.38;5114464;28;20383;-78
2023/01/28 01:03:05;;;;;;;30.80;19.23;;;;;;;4.72;60.52;100911.06;5113658;28;20388;-77
2023/01/28 01:05:32;;;;;;;55.53;31.30;;;;;;;4.69;60.57;100906.06;5112545;28;20403;-77
2023/01/28 01:07:58;;;;;;;41.77;24.07;;;;;;;4.71;60.39;100915.47;5113712;28;20417;-77
2023/01/28 01:10:24;;;;;;;32.88;21.33;;;;;;;4.71;60.28;100912.00;5111897;28;20376;-78
2023/01/28 01:12:49;;;;;;;23.43;14.43;;;;;;;4.75;60.26;100911.66;5113352;28;20384;-77
2023/01/28 01:15:16;;;;;;;26.27;16.27;;;;;;;4.72;60.22;100900.56;5113845;28;20487;-77
2023/01/28 01:17:44;;;;;;;20.70;12.63;;;;;;;4.78;60.28;100907.91;5104125;28;20736;-78
2023/01/28 01:20:22;;;;;;;22.73;14.13;;;;;;;4.78;60.14;100910.53;5113004;28;20470;-77
2023/01/28 01:22:47;;;;;;;22.15;13.98;;;;;;;4.77;60.46;100908.88;5113724;28;20375;-78
2023/01/28 01:25:15;;;;;;;19.33;11.98;;;;;;;4.76;59.97;100913.28;5113502;28;20752;-77
2023/01/28 01:27:42;;;;;;;14.75;9.32;;;;;;;4.89;60.03;100922.78;5113201;28;20847;-77
2023/01/28 01:30:09;;;;;;;12.90;8.77;;;;;;;4.95;60.11;100915.22;5112569;28;20491;-77
2023/01/28 01:32:35;;;;;;;11.95;7.63;;;;;;;4.99;59.58;100918.44;5113137;28;20737;-78
2023/01/28 01:35:02;;;;;;;11.95;7.22;;;;;;;4.97;60.02;100926.44;5114133;28;20391;-78
2023/01/28 01:37:28;;;;;;;9.43;6.47;;;;;;;4.95;59.61;100927.50;5112167;28;20426;-78
2023/01/28 01:39:54;;;;;;;10.27;7.20;;;;;;;4.98;59.64;100924.63;5113788;28;20376;-77
2023/01/28 01:42:20;;;;;;;13.55;9.15;;;;;;;4.96;59.79;100927.38;5113762;28;20449;-78
2023/01/28 01:44:59;;;;;;;13.82;9.38;;;;;;;4.98;59.59;100927.25;5113580;28;20431;-77
2023/01/28 01:47:43;;;;;;;12.80;9.00;;;;;;;4.92;59.83;100919.91;5117690;28;20444;-78
2023/01/28 01:50:27;;;;;;;14.75;9.98;;;;;;;4.89;59.77;100920.16;5123025;28;20393;-78
2023/01/28 01:52:58;;;;;;;11.65;7.75;;;;;;;4.93;59.38;100916.31;5115932;28;20392;-78
2023/01/28 01:55:29;;;;;;;18.83;11.63;;;;;;;4.81;59.72;100922.56;5113389;28;20408;-78
2023/01/28 01:58:15;;;;;;;14.68;9.35;;;;;;;4.79;59.91;100934.06;5114601;28;20391;-78
2023/01/28 02:00:41;;;;;;;12.82;8.40;;;;;;;4.83;59.56;100928.56;5114026;28;20395;-78
2023/01/28 02:03:08;;;;;;;15.88;9.02;;;;;;;4.78;59.44;100929.75;5113526;28;20398;-78
2023/01/28 02:05:34;;;;;;;14.95;9.57;;;;;;;4.70;59.44;100932.19;5120938;28;20509;-78
2023/01/28 02:08:20;;;;;;;10.40;6.40;;;;;;;4.52;59.89;100929.28;5120733;28;20403;-78
2023/01/28 02:11:00;;;;;;;11.68;7.30;;;;;;;4.44;59.65;100938.75;5113573;28;20898;-78
2023/01/28 02:13:31;;;;;;;15.73;9.07;;;;;;;4.50;59.39;100944.34;5113322;28;20383;-78
2023/01/28 02:15:59;;;;;;;19.77;10.82;;;;;;;4.53;59.83;100951.13;5113094;28;20410;-78
2023/01/28 02:18:25;;;;;;;19.27;10.88;;;;;;;4.57;59.24;100942.03;5113583;28;20387;-78
2023/01/28 02:21:12;;;;;;;11.07;6.50;;;;;;;4.66;59.10;100951.75;5112892;28;20787;-78
2023/01/28 02:23:58;;;;;;;9.75;6.75;;;;;;;4.71;59.23;100939.09;5112017;28;20377;-77
2023/01/28 02:26:30;;;;;;;10.50;7.40;;;;;;;4.66;59.44;100937.81;5112070;28;20376;-77
2023/01/28 02:29:01;;;;;;;13.68;8.45;;;;;;;4.65;59.08;100941.41;5112320;28;20448;-78
2023/01/28 02:31:37;;;;;;;15.07;9.50;;;;;;;4.67;58.94;100939.50;5112217;28;20412;-77
2023/01/28 02:34:03;;;;;;;18.95;10.18;;;;;;;4.65;59.15;100938.78;5112217;28;20375;-77
2023/01/28 02:36:39;;;;;;;21.55;12.98;;;;;;;4.66;59.10;100945.69;5111314;28;20398;-77
2023/01/28 02:39:14;;;;;;;14.75;8.68;;;;;;;4.49;58.67;100947.06;5112048;28;20413;-77
2023/01/28 02:41:48;;;;;;;16.35;9.85;;;;;;;4.51;59.23;100950.41;5111585;28;20384;-77
2023/01/28 02:44:13;;;;;;;14.80;8.50;;;;;;;4.54;58.79;100937.03;5111783;28;20841;-77
2023/01/28 02:49:29;;;;;;;17.17;10.43;;;;;;;4.71;58.84;100941.72;5112119;28;20855;-76
2023/01/28 02:51:54;;;;;;;20.50;12.50;;;;;;;4.79;58.33;100943.75;5111598;27;20516;-77
2023/01/28 02:54:47;;;;;;;10.57;7.30;;;;;;;4.79;58.43;100949.00;5111676;28;20383;-77
2023/01/28 02:57:28;;;;;;;10.05;6.60;;;;;;;4.76;58.08;100947.44;5110783;28;20396;-76
2023/01/28 03:00:20;;;;;;;10.43;6.95;;;;;;;4.75;58.54;100944.94;5112001;28;20872;-77
2023/01/28 03:03:05;;;;;;;11.32;7.07;;;;;;;4.70;58.42;100949.72;5102681;28;20426;-77
2023/01/28 03:06:02;;;;;;;17.60;10.63;;;;;;;4.66;58.61;100956.19;5110570;28;20380;-77
2023/01/28 03:39:09;;;;;;;25.38;14.35;;;;;;;4.43;57.91;100961.53;5110910;28;20870;-77
2023/01/28 03:41:35;;;;;;;12.10;8.30;;;;;;;4.40;58.10;100959.97;5110907;28;20383;-76
2023/01/28 03:46:44;;;;;;;7.22;5.97;;;;;;;4.44;58.18;100971.06;5110782;28;20440;-76
2023/01/28 03:49:10;;;;;;;9.33;6.80;;;;;;;4.44;57.69;100976.31;5110701;28;20445;-77
2023/01/28 03:51:35;;;;;;;10.45;7.78;;;;;;;4.53;57.48;100966.88;5114727;28;20386;-77
2023/01/28 03:54:01;;;;;;;8.60;7.33;;;;;;;4.62;57.77;100975.78;5111827;28;20487;-77
2023/01/28 03:56:31;;;;;;;8.15;6.32;;;;;;;4.59;57.83;100971.59;5112100;28;20478;-77
2023/01/28 03:58:56;;;;;;;10.45;6.65;;;;;;;4.64;57.48;100973.88;5114886;28;20487;-77
2023/01/28 04:01:22;;;;;;;11.57;8.63;;;;;;;4.62;57.92;100968.75;5115228;27;20931;-76
2023/01/28 04:03:47;;;;;;;18.03;12.27;;;;;;;4.61;57.77;100980.22;5114450;28;20379;-77
2023/01/28 04:06:13;;;;;;;23.10;13.80;;;;;;;4.55;57.97;100973.66;5115051;28;20967;-77
2023/01/28 04:08:39;;;;;;;14.40;8.30;;;;;;;4.56;57.71;100985.00;5113226;28;20406;-77
2023/01/28 04:11:18;;;;;;;9.97;7.13;;;;;;;4.49;57.78;100979.41;5114990;28;20391;-77
2023/01/28 04:13:45;;;;;;;7.93;5.47;;;;;;;4.55;57.48;100988.56;5115071;28;20380;-77
2023/01/28 04:16:12;;;;;;;9.52;6.00;;;;;;;4.56;57.70;100991.06;5114308;28;20452;-77
2023/01/28 04:18:37;;;;;;;9.50;6.78;;;;;;;4.50;57.51;100986.34;5114647;28;20384;-77
2023/01/28 04:21:03;;;;;;;10.70;7.93;;;;;;;4.53;57.42;100996.56;5114786;28;20382;-77
2023/01/28 04:23:28;;;;;;;15.98;13.43;;;;;;;4.64;57.47;101005.38;5113439;28;20400;-76
2023/01/28 04:25:54;;;;;;;10.73;8.33;;;;;;;4.54;57.18;100998.25;5113814;28;20415;-77
2023/01/28 04:28:20;;;;;;;10.82;8.60;;;;;;;4.55;57.40;101007.78;5114173;28;20380;-77
2023/01/28 04:30:45;;;;;;;16.08;12.75;;;;;;;4.59;57.30;101003.09;5114220;28;20406;-77
2023/01/28 04:33:11;;;;;;;12.52;9.48;;;;;;;4.59;57.65;101013.63;5114595;28;20395;-76
2023/01/28 04:35:37;;;;;;;11.10;8.05;;;;;;;4.65;57.39;101012.31;5113932;28;20395;-76
2023/01/28 04:38:03;;;;;;;9.63;7.22;;;;;;;4.64;57.42;101018.50;5113745;28;20391;-77
2023/01/28 04:40:28;;;;;;;10.10;7.63;;;;;;;4.61;57.65;101019.59;5114202;28;20387;-77
2023/01/28 04:42:55;;;;;;;11.80;8.77;;;;;;;4.62;57.44;101010.75;5113881;28;20854;-76
2023/01/28 04:45:20;;;;;;;11.98;9.20;;;;;;;4.62;57.39;101016.00;5114251;28;20802;-76
2023/01/28 04:47:46;;;;;;;14.03;10.33;;;;;;;4.71;57.56;101033.63;5113968;28;20383;-77
2023/01/28 04:50:12;;;;;;;17.33;11.30;;;;;;;4.72;56.89;101031.88;5113887;28;20384;-77
2023/01/28 04:52:38;;;;;;;11.85;9.80;;;;;;;4.74;57.17;101036.03;5113761;28;20720;-76
2023/01/28 04:55:03;;;;;;;12.65;9.73;;;;;;;4.76;57.27;101034.09;5113729;28;20528;-76
2023/01/28 04:57:29;;;;;;;17.50;15.70;;;;;;;4.78;57.11;101044.47;5113930;28;20395;-77
2023/01/28 04:59:54;;;;;;;13.40;11.33;;;;;;;4.74;57.38;101041.28;5113632;28;20391;-77
2023/01/28 05:02:20;;;;;;;12.27;9.57;;;;;;;4.74;56.97;101038.66;5113486;27;20881;-76
2023/01/28 05:04:46;;;;;;;17.47;12.93;;;;;;;4.72;57.21;101039.75;5113245;28;20453;-76
2023/01/28 05:07:11;;;;;;;25.38;20.02;;;;;;;4.71;56.96;101038.88;5112762;28;20380;-77
2023/01/28 05:09:37;;;;;;;20.02;14.30;;;;;;;4.66;57.39;101037.59;5113741;28;20378;-77
2023/01/28 05:12:02;;;;;;;24.50;16.50;;;;;;;4.68;57.43;101040.94;5113812;28;20380;-77
2023/01/28 05:14:28;;;;;;;29.38;22.52;;;;;;;4.66;57.31;101035.78;5113495;28;20388;-76
2023/01/28 05:16:53;;;;;;;27.13;22.67;;;;;;;4.72;56.95;101042.38;5113158;28;20806;-77
2023/01/28 05:19:19;;;;;;;35.97;29.67;;;;;;;4.67;56.99;101044.53;5115296;28;20775;-76
2023/01/28 05:21:44;;;;;;;47.17;37.10;;;;;;;4.67;56.98;101049.78;5115413;28;20393;-77
2023/01/28 05:24:10;;;;;;;26.73;20.23;;;;;;;4.69;56.91;101048.69;5113384;28;20468;-77
2023/01/28 05:26:36;;;;;;;24.17;20.17;;;;;;;4.73;56.63;101054.53;5112225;28;20740;-77
2023/01/28 05:29:02;;;;;;;22.93;18.87;;;;;;;4.74;56.99;101045.69;5113425;28;20395;-77
2023/01/28 05:31:27;;;;;;;23.88;18.90;;;;;;;4.69;57.17;101042.59;5113331;28;20399;-77
2023/01/28 05:33:53;;;;;;;17.33;15.43;;;;;;;4.70;56.75;101044.25;5112981;28;20384;-77
2023/01/28 05:36:19;;;;;;;13.33;10.23;;;;;;;4.67;56.80;101042.72;5113953;28;20449;-77
2023/01/28 05:38:44;;;;;;;11.82;9.95;;;;;;;4.59;56.85;101040.72;5116745;28;20441;-77
2023/01/28 05:41:10;;;;;;;13.52;10.15;;;;;;;4.60;56.91;101045.00;5113123;28;21566;-77
2023/01/28 05:43:35;;;;;;;15.20;11.35;;;;;;;4.68;56.82;101056.69;5112082;28;20395;-77
2023/01/28 05:46:01;;;;;;;15.00;11.20;;;;;;;4.70;56.68;101062.63;5113240;28;20380;-77
2023/01/28 05:48:27;;;;;;;17.10;11.53;;;;;;;4.78;57.09;101063.69;5112731;28;20415;-77
2023/01/28 05:50:52;;;;;;;16.37;12.63;;;;;;;4.80;56.42;101060.94;5112425;28;20390;-77
2023/01/28 05:53:17;;;;;;;19.00;12.87;;;;;;;4.75;56.43;101061.34;5112956;28;20387;-76
2023/01/28 05:55:47;;;;;;;17.65;12.73;;;;;;;4.81;56.75;101067.88;5112945;28;20404;-76
2023/01/28 05:58:12;;;;;;;18.15;13.02;;;;;;;4.82;56.54;101063.47;5111542;28;20391;-77
2023/01/28 06:00:38;;;;;;;17.43;12.17;;;;;;;4.87;56.48;101064.75;5112773;28;20379;-76
2023/01/28 06:03:03;;;;;;;17.90;11.85;;;;;;;4.89;56.35;101075.97;5112742;28;20391;-76
2023/01/28 06:05:29;;;;;;;18.87;11.27;;;;;;;4.85;56.62;101071.94;5112308;28;20375;-76
2023/01/28 06:07:54;;;;;;;21.00;11.87;;;;;;;4.86;56.78;101075.38;5111746;28;20727;-76
2023/01/28 06:10:19;;;;;;;24.93;12.37;;;;;;;4.87;56.33;101077.88;5113214;28;20372;-76
2023/01/28 06:12:45;;;;;;;21.98;13.38;;;;;;;4.83;56.98;101076.47;5112637;28;20383;-76
2023/01/28 06:15:11;;;;;;;28.07;14.70;;;;;;;4.84;56.56;101085.19;5112184;28;20388;-76
2023/01/28 06:17:36;;;;;;;28.07;15.30;;;;;;;4.84;56.63;101087.81;5111383;28;20383;-76
2023/01/28 06:20:02;;;;;;;27.70;15.03;;;;;;;4.90;56.33;101095.22;5110832;28;20440;-76
2023/01/28 06:22:28;;;;;;;27.05;15.80;;;;;;;4.92;56.76;101098.53;5112576;28;20392;-77
2023/01/28 06:24:53;;;;;;;27.17;15.88;;;;;;;4.89;56.49;101091.72;5112456;27;20387;-76
2023/01/28 06:27:19;;;;;;;28.83;16.57;;;;;;;4.90;56.56;101097.84;5111800;28;20478;-76
2023/01/28 06:29:44;;;;;;;31.10;16.97;;;;;;;4.92;56.55;101093.28;5111593;28;20756;-75
2023/01/28 06:32:10;;;;;;;28.20;16.97;;;;;;;4.98;56.30;101096.22;5111294;28;20392;-76
2023/01/28 06:34:35;;;;;;;24.70;14.68;;;;;;;4.95;56.50;101096.50;5111944;28;20374;-75
2023/01/28 06:37:03;;;;;;;22.40;14.33;;;;;;;4.93;56.62;101100.19;5112505;28;20387;-76
2023/01/28 06:39:30;;;;;;;18.63;11.57;;;;;;;4.89;56.91;101101.41;5111277;28;20797;-76
2023/01/28 06:41:56;;;;;;;19.58;12.20;;;;;;;4.85;56.79;101103.44;5110102;28;20372;-76
2023/01/28 06:44:22;;;;;;;19.42;13.70;;;;;;;4.83;57.13;101099.28;5110374;28;20925;-76
2023/01/28 06:46:48;;;;;;;17.45;12.38;;;;;;;4.83;57.01;101110.63;5110443;28;20376;-76
2023/01/28 06:49:13;;;;;;;18.83;11.80;;;;;;;4.88;56.71;101110.22;5110344;28;20817;-76
2023/01/28 06:51:39;;;;;;;15.53;11.03;;;;;;;4.95;56.90;101114.03;5110115;28;20383;-76
2023/01/28 06:54:04;;;;;;;17.83;10.63;;;;;;;4.96;56.50;101115.72;5110593;28;20413;-76
2023/01/28 06:56:30;;;;;;;19.40;12.10;;;;;;;4.90;56.63;101109.16;5110289;28;20985;-77
2023/01/28 06:58:55;;;;;;;22.02;13.13;;;;;;;4.93;56.66;101114.19;5109840;28;20742;-76
2023/01/28 07:01:21;;;;;;;18.55;12.45;;;;;;;4.89;56.83;101120.63;5111078;28;20379;-76
2023/01/28 07:03:46;;;;;;;26.67;16.00;;;;;;;4.96;56.73;101131.47;5111010;28;20379;-76
2023/01/28 07:06:12;;;;;;;27.63;16.90;;;;;;;4.95;56.87;101127.16;5113486;28;20450;-77
2023/01/28 07:08:38;;;;;;;25.20;16.48;;;;;;;4.95;56.59;101128.03;5113259;28;20383;-77
2023/01/28 07:11:04;;;;;;;20.40;14.20;;;;;;;5.00;56.87;101135.53;5111119;28;20380;-77
2023/01/28 07:13:29;;;;;;;22.00;14.53;;;;;;;5.04;57.00;101136.09;5111348;28;20380;-77
2023/01/28 07:18:39;;;;;;;21.13;14.43;;;;;;;5.09;57.07;101137.41;5108915;28;20496;-77
2023/01/28 07:21:04;;;;;;;23.97;14.67;;;;;;;5.10;56.49;101144.34;5109640;28;20459;-77
2023/01/28 07:23:30;;;;;;;27.13;16.27;;;;;;;5.15;56.59;101142.19;5113221;28;20379;-77
2023/01/28 07:26:03;;;;;;;28.10;18.77;;;;;;;5.07;56.60;101134.06;5111475;28;20372;-77
2023/01/28 07:28:29;;;;;;;30.00;20.13;;;;;;;5.08;57.13;101133.13;5107312;28;20387;-77
2023/01/28 07:30:54;;;;;;;19.97;13.53;;;;;;;5.13;57.17;101144.09;5113405;28;20426;-77
2023/01/28 07:33:20;;;;;;;22.37;13.90;;;;;;;5.15;57.04;101152.69;5113306;28;20383;-78
2023/01/28 07:35:46;;;;;;;25.38;16.65;;;;;;;5.16;56.88;101149.09;5113825;28;20413;-77
2023/01/28 07:38:12;;;;;;;14.23;10.75;;;;;;;5.17;56.83;101163.09;5112973;28;20391;-77
2023/01/28 07:40:37;;;;;;;10.00;7.32;;;;;;;5.04;56.55;101149.25;5112754;28;20387;-77
2023/01/28 07:43:03;;;;;;;10.93;7.97;;;;;;;4.92;56.46;101149.28;5112307;28;20375;-76
2023/01/28 07:45:30;;;;;;;8.90;6.28;;;;;;;4.93;56.43;101152.72;5113502;28;20382;-77
2023/01/28 07:48:02;;;;;;;8.82;5.93;;;;;;;4.95;56.25;101161.31;5113394;28;20386;-76
2023/01/28 07:50:29;;;;;;;11.07;7.25;;;;;;;4.86;56.80;101167.31;5114024;28;20420;-76
2023/01/28 07:52:56;;;;;;;11.63;7.73;;;;;;;4.84;56.48;101174.47;5114016;28;20396;-76
2023/01/28 07:55:22;;;;;;;13.70;8.70;;;;;;;4.85;56.57;101163.03;5103222;28;20432;-76
2023/01/28 07:57:52;;;;;;;13.20;8.57;;;;;;;4.93;57.21;101169.34;5100035;28;20389;-76
2023/01/28 08:00:19;;;;;;;18.13;10.67;;;;;;;4.92;56.78;101170.28;5113481;28;20395;-78
2023/01/28 08:02:46;;;;;;;11.27;7.88;;;;;;;4.91;56.43;101170.41;5114884;28;20448;-77
2023/01/28 08:05:21;;;;;;;15.27;9.43;;;;;;;4.94;56.52;101175.44;5109949;28;20393;-79
2023/01/28 08:07:47;;;;;;;20.92;12.75;;;;;;;5.04;56.80;101176.38;5096915;28;20393;-78
2023/01/28 08:10:15;;;;;;;18.42;10.82;;;;;;;5.20;57.06;101181.22;5096385;28;20945;-80
2023/01/28 08:12:49;;;;;;;17.00;9.68;;;;;;;5.24;57.06;101177.41;5108209;27;20391;-78
2023/01/28 08:15:15;;;;;;;25.13;13.43;;;;;;;5.05;56.84;101179.84;5114276;28;20801;-78
2023/01/28 08:17:40;;;;;;;21.50;10.77;;;;;;;5.08;56.51;101184.84;5114013;28;20383;-78
2023/01/28 08:20:06;;;;;;;23.90;13.90;;;;;;;5.07;56.92;101189.25;5101192;28;20439;-79
2023/01/28 08:22:32;;;;;;;15.07;9.65;;;;;;;5.07;56.81;101186.63;5114760;28;20489;-78
2023/01/28 08:24:57;;;;;;;14.35;9.23;;;;;;;5.04;56.45;101196.53;5112974;28;20413;-80
2023/01/28 08:27:23;;;;;;;15.17;10.57;;;;;;;5.05;56.75;101190.34;5113864;28;20421;-77
2023/01/28 08:29:48;;;;;;;9.10;6.60;;;;;;;5.05;57.17;101191.16;5113041;28;20949;-79
2023/01/28 08:32:14;;;;;;;9.77;6.70;;;;;;;5.18;57.11;101201.53;5101083;28;20726;-79
2023/01/28 08:34:39;;;;;;;18.45;11.27;;;;;;;5.14;56.80;101203.56;5100862;28;20369;-80
2023/01/28 08:37:05;;;;;;;12.27;9.00;;;;;;;5.12;56.65;101196.78;5105257;28;20402;-79
2023/01/28 08:39:30;;;;;;;9.47;6.63;;;;;;;5.23;56.53;101204.63;5095695;28;20710;-79
2023/01/28 08:41:56;;;;;;;10.33;7.30;;;;;;;5.30;57.12;101200.56;5111233;28;20386;-80
2023/01/28 08:44:21;;;;;;;15.03;9.53;;;;;;;5.32;56.70;101203.88;5107574;28;20746;-78
2023/01/28 08:46:47;;;;;;;12.25;8.50;;;;;;;5.33;56.49;101208.19;5111785;28;20411;-78
2023/01/28 08:49:12;;;;;;;29.00;17.07;;;;;;;5.25;56.59;101207.97;5108890;28;20377;-78
2023/01/28 08:51:37;;;;;;;15.10;10.17;;;;;;;5.25;56.94;101205.34;5106213;28;20376;-79
2023/01/28 08:54:03;;;;;;;9.73;6.82;;;;;;;5.20;57.31;101215.38;5106422;28;20382;-77
2023/01/28 08:56:29;;;;;;;11.23;7.43;;;;;;;5.12;57.21;101221.25;5120291;28;21023;-79
2023/01/28 08:58:55;;;;;;;14.05;8.95;;;;;;;5.27;57.20;101211.31;5095125;28;20400;-79
2023/01/28 09:01:20;;;;;;;13.32;8.88;;;;;;;5.40;56.92;101219.03;5106723;28;20708;-80
2023/01/28 09:03:45;;;;;;;25.73;12.53;;;;;;;5.36;57.06;101226.34;5113247;28;20436;-80
2023/01/28 09:06:11;;;;;;;14.23;8.83;;;;;;;5.36;57.10;101217.63;5102148;28;20818;-77
2023/01/28 09:08:37;;;;;;;8.48;5.93;;;;;;;5.33;57.49;101217.84;5107064;28;20436;-78
2023/01/28 09:11:02;;;;;;;16.55;9.90;;;;;;;5.43;57.69;101216.16;5092872;28;20891;-78
2023/01/28 09:13:28;;;;;;;14.70;9.13;;;;;;;5.51;57.32;101218.16;5103457;28;20391;-79
2023/01/28 09:15:55;;;;;;;10.23;6.75;;;;;;;5.55;57.03;101222.25;5117132;28;20399;-81
2023/01/28 09:18:21;;;;;;;9.47;7.10;;;;;;;5.65;57.57;101228.41;5094943;28;20862;-79
2023/01/28 09:20:46;;;;;;;8.30;6.63;;;;;;;5.61;56.96;101229.63;5094111;28;20392;-79
2023/01/28 09:23:13;;;;;;;10.63;8.90;;;;;;;5.55;56.80;101220.44;5111984;28;20380;-78
2023/01/28 09:25:38;;;;;;;10.25;7.45;;;;;;;5.62;57.21;101233.94;5112859;28;20375;-79
2023/01/28 09:28:04;;;;;;;7.28;5.97;;;;;;;5.58;57.15;101224.59;5108646;28;20382;-79
2023/01/28 09:30:30;;;;;;;8.75;6.80;;;;;;;5.59;57.71;101233.34;5111123;28;20414;-78
2023/01/28 09:32:59;;;;;;;10.77;7.80;;;;;;;5.64;57.43;101229.38;5110223;28;20954;-78
2023/01/28 09:35:25;;;;;;;10.25;7.50;;;;;;;5.72;56.81;101232.19;5112262;28;20418;-79
2023/01/28 09:37:50;;;;;;;7.70;5.33;;;;;;;5.56;57.30;101234.41;5112497;28;20864;-79
2023/01/28 09:40:24;;;;;;;9.77;6.80;;;;;;;5.65;57.25;101232.84;5112105;28;20460;-78
2023/01/28 09:43:08;;;;;;;10.33;6.60;;;;;;;5.69;57.24;101228.97;5112043;28;20754;-78
2023/01/28 09:45:39;;;;;;;10.13;7.27;;;;;;;5.72;57.20;101223.47;5109171;28;20446;-78
2023/01/28 09:48:09;;;;;;;9.95;6.65;;;;;;;5.71;57.29;101217.41;5103942;28;20442;-77
2023/01/28 09:50:38;;;;;;;9.05;7.32;;;;;;;5.72;57.45;101219.03;5108088;28;20381;-77
2023/01/28 09:53:32;;;;;;;14.70;10.82;;;;;;;5.76;57.40;101222.25;5106465;28;20391;-78
2023/01/28 09:56:11;;;;;;;10.07;7.78;;;;;;;5.86;57.00;101212.66;5102729;28;20903;-80
2023/01/28 09:58:36;;;;;;;13.70;7.95;;;;;;;5.82;57.29;101227.03;5105368;28;20459;-77
2023/01/28 10:01:10;;;;;;;12.60;8.50;;;;;;;5.87;57.38;101226.63;5109647;27;20438;-78
2023/01/28 10:03:42;;;;;;;12.35;8.43;;;;;;;5.86;57.50;101209.19;5109387;28;20821;-77
2023/01/28 10:06:45;;;;;;;11.57;7.30;;;;;;;5.82;57.33;101215.69;5105728;28;20444;-77
2023/01/28 10:09:28;;;;;;;7.22;5.13;;;;;;;5.61;56.63;101218.28;5110519;28;20429;-78
2023/01/28 10:12:32;;;;;;;11.33;8.87;;;;;;;5.71;57.55;101206.88;5111386;28;20384;-78
2023/01/28 10:15:06;;;;;;;7.30;5.30;;;;;;;5.72;57.62;101208.53;5054827;28;20480;-78
2023/01/28 10:17:44;;;;;;;7.60;5.05;;;;;;;5.57;56.93;101207.16;5097110;28;20415;-79
2023/01/28 10:20:14;;;;;;;11.43;7.78;;;;;;;5.72;56.71;101191.91;5107791;28;20736;-78
2023/01/28 10:22:49;;;;;;;8.77;6.17;;;;;;;5.73;56.58;101198.84;5107165;28;20889;-78
2023/01/28 10:25:19;;;;;;;10.47;6.33;;;;;;;5.67;57.01;101202.84;5110052;28;20394;-78
2023/01/28 10:27:46;;;;;;;10.27;6.30;;;;;;;5.47;57.63;101203.59;5109479;28;20383;-78
2023/01/28 10:30:24;;;;;;;14.80;9.77;;;;;;;5.59;57.30;101207.88;5108969;28;20423;-79
2023/01/28 10:32:53;;;;;;;16.92;12.30;;;;;;;5.68;57.46;101201.84;5111995;28;20391;-79
2023/01/28 10:35:20;;;;;;;11.30;7.50;;;;;;;5.88;56.78;101200.22;5111158;28;20387;-77
2023/01/28 10:37:46;;;;;;;29.60;17.85;;;;;;;5.93;56.77;101200.66;5110788;28;20859;-78
2023/01/28 10:40:17;;;;;;;25.90;12.70;;;;;;;5.87;56.49;101206.44;5108757;28;20375;-80
2023/01/28 10:42:43;;;;;;;289.02;119.97;;;;;;;5.89;56.46;101201.88;5109539;28;20391;-80
2023/01/28 10:45:29;;;;;;;42.13;23.40;;;;;;;6.01;56.86;101204.47;5119770;28;20886;-79
2023/01/28 10:47:57;;;;;;;13.43;8.63;;;;;;;5.60;55.96;101206.06;5110211;28;20388;-77
2023/01/28 10:50:26;;;;;;;46.20;28.92;;;;;;;5.49;57.06;101202.53;5110949;28;20375;-78
2023/01/28 10:53:03;;;;;;;16.30;11.17;;;;;;;5.67;56.55;101204.59;5111481;28;20421;-78
2023/01/28 10:55:44;;;;;;;12.25;7.57;;;;;;;5.44;57.43;101195.97;5108732;28;20397;-77
2023/01/28 10:58:23;;;;;;;18.00;11.85;;;;;;;5.57;57.23;101201.09;5109322;28;20410;-76
2023/01/28 11:00:55;;;;;;;32.83;20.17;;;;;;;5.63;57.19;101204.03;5108756;28;20395;-79
2023/01/28 11:03:22;;;;;;;11.75;6.75;;;;;;;5.46;56.65;101194.91;5112896;28;20437;-78
2023/01/28 11:05:52;;;;;;;25.95;14.98;;;;;;;5.60;56.68;101209.56;5109231;28;21109;-79
2023/01/28 11:08:19;;;;;;;13.97;10.20;;;;;;;5.62;56.86;101197.13;5104525;28;20407;-79
2023/01/28 11:10:45;;;;;;;15.70;10.55;;;;;;;5.62;56.38;101199.75;5104972;28;20384;-79
2023/01/28 11:13:29;;;;;;;23.55;14.57;;;;;;;5.61;56.44;101194.59;5112727;28;20860;-78
2023/01/28 11:16:02;;;;;;;14.30;10.05;;;;;;;5.63;57.18;101196.13;5106786;28;20441;-77
2023/01/28 11:18:31;;;;;;;26.42;16.10;;;;;;;5.66;56.36;101193.25;5107595;28;20407;-79
2023/01/28 11:21:01;;;;;;;9.05;6.10;;;;;;;5.49;56.41;101202.53;5110524;28;20371;-77
2023/01/28 11:23:32;;;;;;;13.00;9.55;;;;;;;5.55;57.00;101198.56;5108232;28;21044;-78
2023/01/28 11:26:01;;;;;;;11.18;8.02;;;;;;;5.70;56.94;101202.56;5105146;28;20792;-78
2023/01/28 11:28:27;;;;;;;11.75;8.18;;;;;;;5.83;56.69;101196.28;5109172;28;20371;-78
2023/01/28 11:30:55;;;;;;;16.03;13.83;;;;;;;5.71;56.73;101201.63;5110695;28;20407;-78
2023/01/28 11:33:36;;;;;;;14.70;10.63;;;;;;;5.83;56.74;101197.13;5109456;28;20456;-78
2023/01/28 11:36:17;;;;;;;16.67;11.07;;;;;;;5.84;56.38;101200.59;5105980;28;20397;-77
2023/01/28 11:38:53;;;;;;;19.85;13.23;;;;;;;5.71;56.90;101188.47;5109989;28;20402;-77
2023/01/28 11:41:34;;;;;;;14.70;8.98;;;;;;;5.82;56.97;101192.84;5105238;28;20782;-77
2023/01/28 11:44:24;;;;;;;10.38;6.63;;;;;;;5.78;56.46;101188.78;5108400;28;20410;-78
2023/01/28 11:47:14;;;;;;;17.73;14.25;;;;;;;5.79;56.68;101185.19;5099974;28;20398;-77
2023/01/28 11:50:19;;;;;;;24.98;16.45;;;;;;;5.82;57.07;101182.31;5106647;28;20371;-78
2023/01/28 11:53:03;;;;;;;17.20;10.40;;;;;;;5.96;56.25;101188.25;5092363;28;20902;-77
2023/01/28 11:56:07;;;;;;;11.75;7.45;;;;;;;5.82;56.48;101189.38;5109638;28;20535;-78
2023/01/28 11:58:55;;;;;;;14.63;9.20;;;;;;;5.80;56.25;101183.38;5090496;28;20472;-79
2023/01/28 12:01:32;;;;;;;13.05;8.60;;;;;;;5.93;56.72;101190.13;5109896;28;20697;-78
2023/01/28 12:04:22;;;;;;;12.75;8.50;;;;;;;5.99;56.21;101191.44;5107081;28;20376;-78
2023/01/28 12:07:00;;;;;;;8.38;6.20;;;;;;;5.76;56.29;101180.16;5109133;28;20827;-78
2023/01/28 12:09:42;;;;;;;6.75;5.57;;;;;;;5.78;57.04;101186.16;5102209;28;20521;-80
2023/01/28 12:12:27;;;;;;;16.97;12.10;;;;;;;5.80;57.04;101188.66;5099240;28;20844;-79